sensor_id;sensor_type;location;lat;lon;timestamp;P1;durP1;ratioP1;P2;durP2;ratioP2
51718;SDS011;37795;53.236;5.704;2024-01-30T00:00:47;12.60;;;8.65;;
51718;SDS011;37795;53.236;5.704;2024-01-30T00:03:13;12.07;;;8.48;;
51718;SDS011;37795;53.236;5.704;2024-01-30T00:05:39;12.55;;;8.10;;
51718;SDS011;37795;53.236;5.704;2024-01-30T00:08:05;13.90;;;8.45;;
51718;SDS011;37795;53.236;5.704;2024-01-30T00:10:31;12.18;;;7.75;;
51718;SDS011;37795;53.236;5.704;2024-01-30T00:12:57;12.02;;;7.95;;
51718;SDS011;37795;53.236;5.704;2024-01-30T00:15:22;13.52;;;7.88;;
51718;SDS011;37795;53.236;5.704;2024-01-30T00:17:48;11.73;;;8.10;;
51718;SDS011;37795;53.236;5.704;2024-01-30T00:20:14;12.43;;;8.00;;
51718;SDS011;37795;53.236;5.704;2024-01-30T00:22:39;11.05;;;7.35;;
51718;SDS011;37795;53.236;5.704;2024-01-30T00:25:05;13.40;;;8.05;;
51718;SDS011;37795;53.236;5.704;2024-01-30T00:27:31;11.48;;;7.70;;
51718;SDS011;37795;53.236;5.704;2024-01-30T00:29:57;13.75;;;8.18;;
51718;SDS011;37795;53.236;5.704;2024-01-30T00:32:22;13.10;;;8.63;;
51718;SDS011;37795;53.236;5.704;2024-01-30T00:34:48;12.38;;;7.75;;
51718;SDS011;37795;53.236;5.704;2024-01-30T00:37:14;12.02;;;8.07;;
51718;SDS011;37795;53.236;5.704;2024-01-30T00:39:40;10.48;;;7.57;;
51718;SDS011;37795;53.236;5.704;2024-01-30T00:42:05;12.38;;;7.50;;
51718;SDS011;37795;53.236;5.704;2024-01-30T00:44:31;12.05;;;7.55;;
51718;SDS011;37795;53.236;5.704;2024-01-30T00:46:59;12.85;;;7.82;;
51718;SDS011;37795;53.236;5.704;2024-01-30T00:49:25;10.40;;;7.80;;
51718;SDS011;37795;53.236;5.704;2024-01-30T00:51:50;13.48;;;8.15;;
51718;SDS011;37795;53.236;5.704;2024-01-30T00:54:16;11.23;;;7.28;;
51718;SDS011;37795;53.236;5.704;2024-01-30T00:56:42;12.23;;;7.43;;
51718;SDS011;37795;53.236;5.704;2024-01-30T00:59:08;10.55;;;7.88;;
51718;SDS011;37795;53.236;5.704;2024-01-30T01:01:34;10.68;;;7.47;;
51718;SDS011;37795;53.236;5.704;2024-01-30T01:03:59;11.13;;;7.13;;
51718;SDS011;37795;53.236;5.704;2024-01-30T01:06:25;11.90;;;7.53;;
51718;SDS011;37795;53.236;5.704;2024-01-30T01:08:51;11.35;;;7.60;;
51718;SDS011;37795;53.236;5.704;2024-01-30T01:11:17;12.88;;;8.07;;
51718;SDS011;37795;53.236;5.704;2024-01-30T01:13:42;10.35;;;7.32;;
51718;SDS011;37795;53.236;5.704;2024-01-30T01:16:08;10.65;;;7.18;;
51718;SDS011;37795;53.236;5.704;2024-01-30T01:18:33;11.07;;;7.50;;
51718;SDS011;37795;53.236;5.704;2024-01-30T01:20:59;10.60;;;7.70;;
51718;SDS011;37795;53.236;5.704;2024-01-30T01:23:25;11.27;;;6.93;;
51718;SDS011;37795;53.236;5.704;2024-01-30T01:25:51;12.27;;;7.45;;
51718;SDS011;37795;53.236;5.704;2024-01-30T01:28:17;9.93;;;6.82;;
51718;SDS011;37795;53.236;5.704;2024-01-30T01:30:43;11.77;;;7.13;;
51718;SDS011;37795;53.236;5.704;2024-01-30T01:33:09;10.85;;;6.50;;
51718;SDS011;37795;53.236;5.704;2024-01-30T01:35:35;11.90;;;6.75;;
51718;SDS011;37795;53.236;5.704;2024-01-30T01:38:01;9.38;;;6.50;;
51718;SDS011;37795;53.236;5.704;2024-01-30T01:40:27;11.80;;;7.47;;
51718;SDS011;37795;53.236;5.704;2024-01-30T01:42:54;11.02;;;7.15;;
51718;SDS011;37795;53.236;5.704;2024-01-30T01:45:20;10.82;;;7.07;;
51718;SDS011;37795;53.236;5.704;2024-01-30T01:47:47;11.02;;;6.95;;
51718;SDS011;37795;53.236;5.704;2024-01-30T01:50:16;12.10;;;7.20;;
51718;SDS011;37795;53.236;5.704;2024-01-30T01:52:48;11.07;;;7.22;;
51718;SDS011;37795;53.236;5.704;2024-01-30T01:55:15;11.88;;;7.82;;
51718;SDS011;37795;53.236;5.704;2024-01-30T01:57:46;10.18;;;6.88;;
51718;SDS011;37795;53.236;5.704;2024-01-30T02:00:12;9.18;;;6.55;;
51718;SDS011;37795;53.236;5.704;2024-01-30T02:02:39;10.02;;;6.75;;
51718;SDS011;37795;53.236;5.704;2024-01-30T02:05:05;11.02;;;6.85;;
51718;SDS011;37795;53.236;5.704;2024-01-30T02:07:31;10.50;;;6.55;;
51718;SDS011;37795;53.236;5.704;2024-01-30T02:09:56;10.55;;;6.82;;
51718;SDS011;37795;53.236;5.704;2024-01-30T02:12:22;9.18;;;6.18;;
51718;SDS011;37795;53.236;5.704;2024-01-30T02:14:48;10.25;;;7.18;;
51718;SDS011;37795;53.236;5.704;2024-01-30T02:17:15;9.90;;;6.28;;
51718;SDS011;37795;53.236;5.704;2024-01-30T02:19:41;10.35;;;6.60;;
51718;SDS011;37795;53.236;5.704;2024-01-30T02:22:07;11.02;;;6.18;;
51718;SDS011;37795;53.236;5.704;2024-01-30T02:24:34;9.98;;;6.85;;
51718;SDS011;37795;53.236;5.704;2024-01-30T02:27:00;10.45;;;7.18;;
51718;SDS011;37795;53.236;5.704;2024-01-30T02:29:25;10.95;;;7.00;;
51718;SDS011;37795;53.236;5.704;2024-01-30T02:31:51;9.80;;;6.47;;
51718;SDS011;37795;53.236;5.704;2024-01-30T02:34:18;10.20;;;6.82;;
51718;SDS011;37795;53.236;5.704;2024-01-30T02:36:44;10.07;;;7.20;;
51718;SDS011;37795;53.236;5.704;2024-01-30T02:39:10;9.88;;;6.43;;
51718;SDS011;37795;53.236;5.704;2024-01-30T02:41:36;10.25;;;6.32;;
51718;SDS011;37795;53.236;5.704;2024-01-30T02:44:02;10.43;;;6.65;;
51718;SDS011;37795;53.236;5.704;2024-01-30T02:46:29;10.95;;;7.05;;
51718;SDS011;37795;53.236;5.704;2024-01-30T02:48:54;10.18;;;6.75;;
51718;SDS011;37795;53.236;5.704;2024-01-30T02:51:20;9.93;;;6.28;;
51718;SDS011;37795;53.236;5.704;2024-01-30T02:53:46;11.40;;;6.25;;
51718;SDS011;37795;53.236;5.704;2024-01-30T02:56:12;9.90;;;6.38;;
51718;SDS011;37795;53.236;5.704;2024-01-30T02:58:39;9.27;;;6.70;;
51718;SDS011;37795;53.236;5.704;2024-01-30T03:01:06;9.35;;;6.05;;
51718;SDS011;37795;53.236;5.704;2024-01-30T03:03:32;9.43;;;5.57;;
51718;SDS011;37795;53.236;5.704;2024-01-30T03:06:00;9.52;;;6.55;;
51718;SDS011;37795;53.236;5.704;2024-01-30T03:08:25;9.70;;;6.32;;
51718;SDS011;37795;53.236;5.704;2024-01-30T03:10:51;8.48;;;5.95;;
51718;SDS011;37795;53.236;5.704;2024-01-30T03:13:17;8.85;;;5.85;;
51718;SDS011;37795;53.236;5.704;2024-01-30T03:15:42;9.55;;;6.18;;
51718;SDS011;37795;53.236;5.704;2024-01-30T03:18:08;8.70;;;5.68;;
51718;SDS011;37795;53.236;5.704;2024-01-30T03:20:34;8.90;;;6.05;;
51718;SDS011;37795;53.236;5.704;2024-01-30T03:23:00;9.20;;;5.82;;
51718;SDS011;37795;53.236;5.704;2024-01-30T03:25:25;11.18;;;7.13;;
51718;SDS011;37795;53.236;5.704;2024-01-30T03:27:51;8.98;;;5.53;;
51718;SDS011;37795;53.236;5.704;2024-01-30T03:30:17;9.35;;;6.18;;
51718;SDS011;37795;53.236;5.704;2024-01-30T03:32:43;9.68;;;6.22;;
51718;SDS011;37795;53.236;5.704;2024-01-30T03:35:09;11.07;;;5.82;;
51718;SDS011;37795;53.236;5.704;2024-01-30T03:37:35;10.40;;;6.45;;
51718;SDS011;37795;53.236;5.704;2024-01-30T03:40:01;10.95;;;6.53;;
51718;SDS011;37795;53.236;5.704;2024-01-30T03:42:28;8.95;;;6.30;;
51718;SDS011;37795;53.236;5.704;2024-01-30T03:44:54;8.93;;;5.82;;
51718;SDS011;37795;53.236;5.704;2024-01-30T03:47:20;9.23;;;5.97;;
51718;SDS011;37795;53.236;5.704;2024-01-30T03:49:46;7.60;;;5.45;;
51718;SDS011;37795;53.236;5.704;2024-01-30T03:52:12;8.98;;;6.53;;
51718;SDS011;37795;53.236;5.704;2024-01-30T03:54:38;8.95;;;5.90;;
51718;SDS011;37795;53.236;5.704;2024-01-30T03:57:04;8.43;;;5.90;;
51718;SDS011;37795;53.236;5.704;2024-01-30T03:59:29;9.07;;;5.75;;
51718;SDS011;37795;53.236;5.704;2024-01-30T04:01:55;8.60;;;5.50;;
51718;SDS011;37795;53.236;5.704;2024-01-30T04:04:21;7.97;;;5.35;;
51718;SDS011;37795;53.236;5.704;2024-01-30T04:06:46;8.02;;;5.53;;
51718;SDS011;37795;53.236;5.704;2024-01-30T04:09:13;7.22;;;5.25;;
51718;SDS011;37795;53.236;5.704;2024-01-30T04:11:39;8.68;;;5.57;;
51718;SDS011;37795;53.236;5.704;2024-01-30T04:14:05;9.65;;;5.97;;
51718;SDS011;37795;53.236;5.704;2024-01-30T04:16:30;8.60;;;5.38;;
51718;SDS011;37795;53.236;5.704;2024-01-30T04:18:56;8.20;;;5.70;;
51718;SDS011;37795;53.236;5.704;2024-01-30T04:21:22;8.43;;;5.63;;
51718;SDS011;37795;53.236;5.704;2024-01-30T04:23:48;8.35;;;5.18;;
51718;SDS011;37795;53.236;5.704;2024-01-30T04:26:15;8.68;;;5.50;;
51718;SDS011;37795;53.236;5.704;2024-01-30T04:28:41;7.57;;;5.03;;
51718;SDS011;37795;53.236;5.704;2024-01-30T04:31:07;8.63;;;5.65;;
51718;SDS011;37795;53.236;5.704;2024-01-30T04:33:33;7.47;;;5.45;;
51718;SDS011;37795;53.236;5.704;2024-01-30T04:35:59;8.85;;;5.35;;
51718;SDS011;37795;53.236;5.704;2024-01-30T04:38:24;8.65;;;5.80;;
51718;SDS011;37795;53.236;5.704;2024-01-30T04:40:50;8.45;;;5.70;;
51718;SDS011;37795;53.236;5.704;2024-01-30T04:43:16;9.05;;;5.32;;
51718;SDS011;37795;53.236;5.704;2024-01-30T04:45:41;8.43;;;5.40;;
51718;SDS011;37795;53.236;5.704;2024-01-30T04:48:07;7.57;;;5.13;;
51718;SDS011;37795;53.236;5.704;2024-01-30T04:50:33;8.25;;;5.68;;
51718;SDS011;37795;53.236;5.704;2024-01-30T04:52:58;7.30;;;4.88;;
51718;SDS011;37795;53.236;5.704;2024-01-30T04:55:24;7.72;;;5.25;;
51718;SDS011;37795;53.236;5.704;2024-01-30T04:57:50;7.43;;;5.30;;
51718;SDS011;37795;53.236;5.704;2024-01-30T05:00:16;7.75;;;4.93;;
51718;SDS011;37795;53.236;5.704;2024-01-30T05:02:41;7.95;;;5.40;;
51718;SDS011;37795;53.236;5.704;2024-01-30T05:05:07;7.35;;;5.22;;
51718;SDS011;37795;53.236;5.704;2024-01-30T05:07:33;8.27;;;5.20;;
51718;SDS011;37795;53.236;5.704;2024-01-30T05:09:59;8.35;;;5.30;;
51718;SDS011;37795;53.236;5.704;2024-01-30T05:12:25;8.30;;;5.60;;
51718;SDS011;37795;53.236;5.704;2024-01-30T05:14:51;7.18;;;4.93;;
51718;SDS011;37795;53.236;5.704;2024-01-30T05:17:17;7.63;;;5.13;;
51718;SDS011;37795;53.236;5.704;2024-01-30T05:19:43;8.15;;;5.13;;
51718;SDS011;37795;53.236;5.704;2024-01-30T05:22:09;7.10;;;4.90;;
51718;SDS011;37795;53.236;5.704;2024-01-30T05:24:35;6.78;;;4.97;;
51718;SDS011;37795;53.236;5.704;2024-01-30T05:27:02;8.30;;;5.25;;
51718;SDS011;37795;53.236;5.704;2024-01-30T05:29:28;7.85;;;5.40;;
51718;SDS011;37795;53.236;5.704;2024-01-30T05:31:53;8.52;;;5.30;;
51718;SDS011;37795;53.236;5.704;2024-01-30T05:34:19;6.53;;;4.45;;
51718;SDS011;37795;53.236;5.704;2024-01-30T05:36:45;7.22;;;4.70;;
51718;SDS011;37795;53.236;5.704;2024-01-30T05:39:10;6.90;;;4.70;;
51718;SDS011;37795;53.236;5.704;2024-01-30T05:41:36;6.85;;;4.35;;
51718;SDS011;37795;53.236;5.704;2024-01-30T05:44:02;7.32;;;4.95;;
51718;SDS011;37795;53.236;5.704;2024-01-30T05:46:27;7.43;;;4.70;;
51718;SDS011;37795;53.236;5.704;2024-01-30T05:48:53;7.15;;;4.68;;
51718;SDS011;37795;53.236;5.704;2024-01-30T05:51:19;7.22;;;4.75;;
51718;SDS011;37795;53.236;5.704;2024-01-30T05:53:44;7.75;;;4.88;;
51718;SDS011;37795;53.236;5.704;2024-01-30T05:56:10;7.30;;;4.43;;
51718;SDS011;37795;53.236;5.704;2024-01-30T05:58:35;7.85;;;4.85;;
51718;SDS011;37795;53.236;5.704;2024-01-30T06:01:02;6.28;;;4.65;;
51718;SDS011;37795;53.236;5.704;2024-01-30T06:03:32;6.65;;;4.63;;
51718;SDS011;37795;53.236;5.704;2024-01-30T06:05:58;7.20;;;4.80;;
51718;SDS011;37795;53.236;5.704;2024-01-30T06:08:23;6.93;;;4.57;;
51718;SDS011;37795;53.236;5.704;2024-01-30T06:10:49;7.38;;;4.45;;
51718;SDS011;37795;53.236;5.704;2024-01-30T06:13:15;6.93;;;4.50;;
51718;SDS011;37795;53.236;5.704;2024-01-30T06:15:40;6.47;;;4.57;;
51718;SDS011;37795;53.236;5.704;2024-01-30T06:18:06;6.70;;;4.30;;
51718;SDS011;37795;53.236;5.704;2024-01-30T06:20:32;6.25;;;4.30;;
51718;SDS011;37795;53.236;5.704;2024-01-30T06:22:57;7.13;;;4.50;;
51718;SDS011;37795;53.236;5.704;2024-01-30T06:25:23;6.57;;;4.32;;
51718;SDS011;37795;53.236;5.704;2024-01-30T06:27:49;6.18;;;4.05;;
51718;SDS011;37795;53.236;5.704;2024-01-30T06:30:14;6.45;;;4.60;;
51718;SDS011;37795;53.236;5.704;2024-01-30T06:32:40;7.22;;;5.10;;
51718;SDS011;37795;53.236;5.704;2024-01-30T06:35:06;6.35;;;4.22;;
51718;SDS011;37795;53.236;5.704;2024-01-30T06:37:33;6.18;;;4.10;;
51718;SDS011;37795;53.236;5.704;2024-01-30T06:39:58;6.82;;;4.35;;
51718;SDS011;37795;53.236;5.704;2024-01-30T06:42:24;6.68;;;4.40;;
51718;SDS011;37795;53.236;5.704;2024-01-30T06:51:49;5.75;;;4.15;;
51718;SDS011;37795;53.236;5.704;2024-01-30T06:54:15;6.10;;;4.20;;
51718;SDS011;37795;53.236;5.704;2024-01-30T06:56:41;6.07;;;4.13;;
51718;SDS011;37795;53.236;5.704;2024-01-30T06:59:06;6.68;;;4.13;;
51718;SDS011;37795;53.236;5.704;2024-01-30T07:01:33;6.10;;;4.55;;
51718;SDS011;37795;53.236;5.704;2024-01-30T07:03:59;7.57;;;4.45;;
51718;SDS011;37795;53.236;5.704;2024-01-30T07:06:25;6.00;;;3.97;;
51718;SDS011;37795;53.236;5.704;2024-01-30T07:08:50;6.80;;;4.65;;
51718;SDS011;37795;53.236;5.704;2024-01-30T07:11:19;6.75;;;4.18;;
51718;SDS011;37795;53.236;5.704;2024-01-30T07:13:50;6.38;;;3.97;;
51718;SDS011;37795;53.236;5.704;2024-01-30T07:16:16;5.93;;;4.22;;
51718;SDS011;37795;53.236;5.704;2024-01-30T07:18:42;5.55;;;3.72;;
51718;SDS011;37795;53.236;5.704;2024-01-30T07:21:08;5.95;;;4.22;;
51718;SDS011;37795;53.236;5.704;2024-01-30T07:23:34;6.05;;;3.50;;
51718;SDS011;37795;53.236;5.704;2024-01-30T07:26:01;6.28;;;4.40;;
51718;SDS011;37795;53.236;5.704;2024-01-30T07:28:27;6.53;;;4.00;;
51718;SDS011;37795;53.236;5.704;2024-01-30T07:30:52;6.65;;;4.32;;
51718;SDS011;37795;53.236;5.704;2024-01-30T07:33:18;5.20;;;3.63;;
51718;SDS011;37795;53.236;5.704;2024-01-30T07:35:45;5.78;;;4.35;;
51718;SDS011;37795;53.236;5.704;2024-01-30T07:38:10;4.88;;;3.53;;
51718;SDS011;37795;53.236;5.704;2024-01-30T07:40:36;5.60;;;3.63;;
51718;SDS011;37795;53.236;5.704;2024-01-30T07:43:02;6.72;;;3.90;;
51718;SDS011;37795;53.236;5.704;2024-01-30T07:45:28;6.43;;;4.20;;
51718;SDS011;37795;53.236;5.704;2024-01-30T07:50:23;5.63;;;3.97;;
51718;SDS011;37795;53.236;5.704;2024-01-30T07:52:48;6.43;;;4.45;;
51718;SDS011;37795;53.236;5.704;2024-01-30T07:55:16;5.95;;;3.47;;
51718;SDS011;37795;53.236;5.704;2024-01-30T07:57:42;5.55;;;4.00;;
51718;SDS011;37795;53.236;5.704;2024-01-30T08:00:08;5.47;;;3.80;;
51718;SDS011;37795;53.236;5.704;2024-01-30T08:02:34;5.53;;;3.83;;
51718;SDS011;37795;53.236;5.704;2024-01-30T08:04:59;4.65;;;3.40;;
51718;SDS011;37795;53.236;5.704;2024-01-30T08:07:25;5.03;;;3.55;;
51718;SDS011;37795;53.236;5.704;2024-01-30T08:09:51;5.53;;;3.60;;
51718;SDS011;37795;53.236;5.704;2024-01-30T08:12:16;5.30;;;3.53;;
51718;SDS011;37795;53.236;5.704;2024-01-30T08:14:42;5.78;;;3.22;;
51718;SDS011;37795;53.236;5.704;2024-01-30T08:17:08;4.68;;;3.50;;
51718;SDS011;37795;53.236;5.704;2024-01-30T08:19:33;4.88;;;3.00;;
51718;SDS011;37795;53.236;5.704;2024-01-30T08:21:59;5.97;;;3.72;;
51718;SDS011;37795;53.236;5.704;2024-01-30T08:24:25;5.03;;;3.25;;
51718;SDS011;37795;53.236;5.704;2024-01-30T08:26:50;4.72;;;3.40;;
51718;SDS011;37795;53.236;5.704;2024-01-30T08:29:16;5.90;;;3.47;;
51718;SDS011;37795;53.236;5.704;2024-01-30T08:31:42;5.20;;;3.25;;
51718;SDS011;37795;53.236;5.704;2024-01-30T08:34:07;4.63;;;3.28;;
51718;SDS011;37795;53.236;5.704;2024-01-30T08:36:33;5.28;;;3.45;;
51718;SDS011;37795;53.236;5.704;2024-01-30T08:38:59;6.03;;;3.53;;
51718;SDS011;37795;53.236;5.704;2024-01-30T08:41:24;5.03;;;3.53;;
51718;SDS011;37795;53.236;5.704;2024-01-30T08:43:52;5.82;;;3.90;;
51718;SDS011;37795;53.236;5.704;2024-01-30T08:46:18;4.75;;;3.15;;
51718;SDS011;37795;53.236;5.704;2024-01-30T08:48:44;5.05;;;3.25;;
51718;SDS011;37795;53.236;5.704;2024-01-30T08:51:10;5.20;;;3.50;;
51718;SDS011;37795;53.236;5.704;2024-01-30T08:53:36;5.13;;;3.42;;
51718;SDS011;37795;53.236;5.704;2024-01-30T08:56:02;5.20;;;3.60;;
51718;SDS011;37795;53.236;5.704;2024-01-30T08:58:28;4.95;;;3.45;;
51718;SDS011;37795;53.236;5.704;2024-01-30T09:00:54;4.30;;;2.97;;
51718;SDS011;37795;53.236;5.704;2024-01-30T09:03:20;4.82;;;3.13;;
51718;SDS011;37795;53.236;5.704;2024-01-30T09:05:45;4.15;;;3.00;;
51718;SDS011;37795;53.236;5.704;2024-01-30T09:08:11;4.55;;;3.25;;
51718;SDS011;37795;53.236;5.704;2024-01-30T09:10:37;8.60;;;3.42;;
51718;SDS011;37795;53.236;5.704;2024-01-30T09:13:03;5.38;;;3.03;;
51718;SDS011;37795;53.236;5.704;2024-01-30T09:15:28;4.32;;;2.72;;
51718;SDS011;37795;53.236;5.704;2024-01-30T09:17:54;5.45;;;2.83;;
51718;SDS011;37795;53.236;5.704;2024-01-30T09:20:20;4.50;;;2.90;;
51718;SDS011;37795;53.236;5.704;2024-01-30T09:22:47;4.07;;;3.00;;
51718;SDS011;37795;53.236;5.704;2024-01-30T09:25:14;4.68;;;2.75;;
51718;SDS011;37795;53.236;5.704;2024-01-30T09:27:40;5.05;;;2.97;;
51718;SDS011;37795;53.236;5.704;2024-01-30T09:30:06;4.13;;;3.20;;
51718;SDS011;37795;53.236;5.704;2024-01-30T09:32:32;4.68;;;3.05;;
51718;SDS011;37795;53.236;5.704;2024-01-30T09:34:58;5.78;;;3.10;;
51718;SDS011;37795;53.236;5.704;2024-01-30T09:37:23;5.15;;;3.00;;
51718;SDS011;37795;53.236;5.704;2024-01-30T09:39:49;4.43;;;2.90;;
51718;SDS011;37795;53.236;5.704;2024-01-30T09:42:20;4.57;;;2.80;;
51718;SDS011;37795;53.236;5.704;2024-01-30T09:45:04;4.50;;;2.80;;
51718;SDS011;37795;53.236;5.704;2024-01-30T09:47:40;4.50;;;2.45;;
51718;SDS011;37795;53.236;5.704;2024-01-30T09:50:08;4.35;;;2.90;;
51718;SDS011;37795;53.236;5.704;2024-01-30T09:52:35;4.18;;;2.75;;
51718;SDS011;37795;53.236;5.704;2024-01-30T09:55:01;4.38;;;2.95;;
51718;SDS011;37795;53.236;5.704;2024-01-30T09:57:27;3.53;;;2.50;;
51718;SDS011;37795;53.236;5.704;2024-01-30T09:59:53;5.00;;;3.30;;
51718;SDS011;37795;53.236;5.704;2024-01-30T10:02:19;4.38;;;2.70;;
51718;SDS011;37795;53.236;5.704;2024-01-30T10:04:49;3.50;;;3.00;;
51718;SDS011;37795;53.236;5.704;2024-01-30T10:07:16;4.10;;;2.70;;
51718;SDS011;37795;53.236;5.704;2024-01-30T10:09:43;4.60;;;2.58;;
51718;SDS011;37795;53.236;5.704;2024-01-30T10:12:09;5.00;;;2.42;;
51718;SDS011;37795;53.236;5.704;2024-01-30T10:14:41;3.70;;;2.72;;
51718;SDS011;37795;53.236;5.704;2024-01-30T10:17:08;3.80;;;2.70;;
51718;SDS011;37795;53.236;5.704;2024-01-30T10:19:39;5.15;;;2.95;;
51718;SDS011;37795;53.236;5.704;2024-01-30T10:22:05;3.42;;;2.47;;
51718;SDS011;37795;53.236;5.704;2024-01-30T10:24:33;4.32;;;3.03;;
51718;SDS011;37795;53.236;5.704;2024-01-30T10:26:59;3.67;;;2.42;;
51718;SDS011;37795;53.236;5.704;2024-01-30T10:29:25;3.80;;;2.50;;
51718;SDS011;37795;53.236;5.704;2024-01-30T10:31:58;4.10;;;2.92;;
51718;SDS011;37795;53.236;5.704;2024-01-30T10:34:28;3.83;;;2.33;;
51718;SDS011;37795;53.236;5.704;2024-01-30T10:39:22;4.38;;;2.65;;
51718;SDS011;37795;53.236;5.704;2024-01-30T10:41:49;3.58;;;2.58;;
51718;SDS011;37795;53.236;5.704;2024-01-30T10:51:48;3.03;;;2.00;;
51718;SDS011;37795;53.236;5.704;2024-01-30T10:54:15;6.28;;;2.50;;
51718;SDS011;37795;53.236;5.704;2024-01-30T10:56:42;3.55;;;2.58;;
51718;SDS011;37795;53.236;5.704;2024-01-30T10:59:08;3.42;;;2.38;;
51718;SDS011;37795;53.236;5.704;2024-01-30T11:01:35;3.58;;;2.20;;
51718;SDS011;37795;53.236;5.704;2024-01-30T11:04:01;2.80;;;2.17;;
51718;SDS011;37795;53.236;5.704;2024-01-30T11:06:27;4.03;;;2.75;;
51718;SDS011;37795;53.236;5.704;2024-01-30T11:11:29;4.57;;;2.50;;
51718;SDS011;37795;53.236;5.704;2024-01-30T11:13:55;3.75;;;2.47;;
51718;SDS011;37795;53.236;5.704;2024-01-30T11:16:20;3.70;;;2.38;;
51718;SDS011;37795;53.236;5.704;2024-01-30T11:18:50;3.40;;;2.42;;
51718;SDS011;37795;53.236;5.704;2024-01-30T11:21:18;4.68;;;2.40;;
51718;SDS011;37795;53.236;5.704;2024-01-30T11:23:44;3.72;;;2.53;;
51718;SDS011;37795;53.236;5.704;2024-01-30T11:26:10;3.78;;;2.10;;
51718;SDS011;37795;53.236;5.704;2024-01-30T11:28:37;3.65;;;2.40;;
51718;SDS011;37795;53.236;5.704;2024-01-30T11:31:06;2.95;;;2.08;;
51718;SDS011;37795;53.236;5.704;2024-01-30T11:33:32;2.47;;;1.80;;
51718;SDS011;37795;53.236;5.704;2024-01-30T11:35:59;5.15;;;2.60;;
51718;SDS011;37795;53.236;5.704;2024-01-30T11:38:26;5.68;;;2.78;;
51718;SDS011;37795;53.236;5.704;2024-01-30T11:40:53;5.68;;;2.60;;
51718;SDS011;37795;53.236;5.704;2024-01-30T11:43:22;4.30;;;2.38;;
51718;SDS011;37795;53.236;5.704;2024-01-30T11:45:48;5.75;;;2.65;;
51718;SDS011;37795;53.236;5.704;2024-01-30T11:48:14;5.60;;;2.80;;
51718;SDS011;37795;53.236;5.704;2024-01-30T11:50:40;4.85;;;2.80;;
51718;SDS011;37795;53.236;5.704;2024-01-30T11:53:06;5.40;;;2.90;;
51718;SDS011;37795;53.236;5.704;2024-01-30T11:55:33;7.00;;;3.10;;
51718;SDS011;37795;53.236;5.704;2024-01-30T11:58:01;6.72;;;3.08;;
51718;SDS011;37795;53.236;5.704;2024-01-30T12:00:27;6.95;;;2.70;;
51718;SDS011;37795;53.236;5.704;2024-01-30T12:02:53;5.05;;;2.60;;
51718;SDS011;37795;53.236;5.704;2024-01-30T12:05:25;8.65;;;2.85;;
51718;SDS011;37795;53.236;5.704;2024-01-30T12:07:52;8.23;;;3.10;;
51718;SDS011;37795;53.236;5.704;2024-01-30T12:10:18;8.02;;;3.13;;
51718;SDS011;37795;53.236;5.704;2024-01-30T12:12:45;4.55;;;2.63;;
51718;SDS011;37795;53.236;5.704;2024-01-30T12:15:12;5.55;;;3.08;;
51718;SDS011;37795;53.236;5.704;2024-01-30T12:17:39;6.10;;;3.17;;
51718;SDS011;37795;53.236;5.704;2024-01-30T12:22:41;9.60;;;3.38;;
51718;SDS011;37795;53.236;5.704;2024-01-30T12:25:16;7.28;;;2.97;;
51718;SDS011;37795;53.236;5.704;2024-01-30T12:27:43;6.72;;;2.85;;
51718;SDS011;37795;53.236;5.704;2024-01-30T12:30:16;6.93;;;3.17;;
51718;SDS011;37795;53.236;5.704;2024-01-30T12:32:44;4.97;;;2.97;;
51718;SDS011;37795;53.236;5.704;2024-01-30T12:35:11;7.35;;;3.22;;
51718;SDS011;37795;53.236;5.704;2024-01-30T12:37:38;8.55;;;3.08;;
51718;SDS011;37795;53.236;5.704;2024-01-30T12:40:04;6.75;;;3.30;;
51718;SDS011;37795;53.236;5.704;2024-01-30T12:42:34;7.18;;;3.28;;
51718;SDS011;37795;53.236;5.704;2024-01-30T12:45:02;5.75;;;3.28;;
51718;SDS011;37795;53.236;5.704;2024-01-30T12:47:29;8.00;;;3.35;;
51718;SDS011;37795;53.236;5.704;2024-01-30T12:49:55;8.63;;;3.03;;
51718;SDS011;37795;53.236;5.704;2024-01-30T12:52:21;6.03;;;2.95;;
51718;SDS011;37795;53.236;5.704;2024-01-30T12:54:50;9.15;;;3.42;;
51718;SDS011;37795;53.236;5.704;2024-01-30T12:59:42;6.03;;;2.67;;
51718;SDS011;37795;53.236;5.704;2024-01-30T13:02:12;7.55;;;2.88;;
51718;SDS011;37795;53.236;5.704;2024-01-30T13:04:38;9.30;;;3.00;;
51718;SDS011;37795;53.236;5.704;2024-01-30T13:07:05;7.13;;;2.97;;
51718;SDS011;37795;53.236;5.704;2024-01-30T13:09:31;8.65;;;3.47;;
51718;SDS011;37795;53.236;5.704;2024-01-30T13:11:57;8.77;;;3.58;;
51718;SDS011;37795;53.236;5.704;2024-01-30T13:14:23;7.57;;;3.35;;
51718;SDS011;37795;53.236;5.704;2024-01-30T13:16:49;8.85;;;2.97;;
51718;SDS011;37795;53.236;5.704;2024-01-30T13:19:15;6.88;;;3.28;;
51718;SDS011;37795;53.236;5.704;2024-01-30T13:21:41;8.30;;;3.20;;
51718;SDS011;37795;53.236;5.704;2024-01-30T13:24:08;7.35;;;3.17;;
51718;SDS011;37795;53.236;5.704;2024-01-30T13:26:33;7.75;;;3.33;;
51718;SDS011;37795;53.236;5.704;2024-01-30T13:28:59;9.07;;;3.10;;
51718;SDS011;37795;53.236;5.704;2024-01-30T13:31:25;8.07;;;3.08;;
51718;SDS011;37795;53.236;5.704;2024-01-30T13:33:52;7.57;;;3.30;;
51718;SDS011;37795;53.236;5.704;2024-01-30T13:36:18;8.27;;;3.05;;
51718;SDS011;37795;53.236;5.704;2024-01-30T13:38:44;6.80;;;3.08;;
51718;SDS011;37795;53.236;5.704;2024-01-30T13:41:10;7.88;;;3.58;;
51718;SDS011;37795;53.236;5.704;2024-01-30T13:43:35;9.32;;;3.38;;
51718;SDS011;37795;53.236;5.704;2024-01-30T13:46:01;6.72;;;3.35;;
51718;SDS011;37795;53.236;5.704;2024-01-30T13:48:28;6.40;;;3.00;;
51718;SDS011;37795;53.236;5.704;2024-01-30T13:50:54;9.77;;;3.22;;
51718;SDS011;37795;53.236;5.704;2024-01-30T13:53:20;8.20;;;3.10;;
51718;SDS011;37795;53.236;5.704;2024-01-30T13:55:46;9.55;;;3.78;;
51718;SDS011;37795;53.236;5.704;2024-01-30T13:58:12;5.78;;;3.00;;
51718;SDS011;37795;53.236;5.704;2024-01-30T14:00:38;8.57;;;3.28;;
51718;SDS011;37795;53.236;5.704;2024-01-30T14:03:03;9.82;;;3.03;;
51718;SDS011;37795;53.236;5.704;2024-01-30T14:05:30;8.70;;;3.50;;
51718;SDS011;37795;53.236;5.704;2024-01-30T14:07:56;6.95;;;3.30;;
51718;SDS011;37795;53.236;5.704;2024-01-30T14:10:22;10.27;;;3.83;;
51718;SDS011;37795;53.236;5.704;2024-01-30T14:12:49;9.25;;;3.42;;
51718;SDS011;37795;53.236;5.704;2024-01-30T14:15:15;6.85;;;3.35;;
51718;SDS011;37795;53.236;5.704;2024-01-30T14:17:43;7.07;;;3.15;;
51718;SDS011;37795;53.236;5.704;2024-01-30T14:20:10;8.02;;;3.20;;
51718;SDS011;37795;53.236;5.704;2024-01-30T14:22:36;7.63;;;3.25;;
51718;SDS011;37795;53.236;5.704;2024-01-30T14:25:02;7.35;;;2.70;;
51718;SDS011;37795;53.236;5.704;2024-01-30T14:27:29;8.40;;;3.28;;
51718;SDS011;37795;53.236;5.704;2024-01-30T14:29:56;4.57;;;2.72;;
51718;SDS011;37795;53.236;5.704;2024-01-30T14:32:22;9.55;;;3.08;;
51718;SDS011;37795;53.236;5.704;2024-01-30T14:34:48;8.02;;;3.03;;
51718;SDS011;37795;53.236;5.704;2024-01-30T14:37:15;7.00;;;2.83;;
51718;SDS011;37795;53.236;5.704;2024-01-30T14:39:40;6.80;;;3.03;;
51718;SDS011;37795;53.236;5.704;2024-01-30T14:42:06;8.38;;;2.97;;
51718;SDS011;37795;53.236;5.704;2024-01-30T14:44:32;6.95;;;2.83;;
51718;SDS011;37795;53.236;5.704;2024-01-30T14:46:59;10.13;;;3.50;;
51718;SDS011;37795;53.236;5.704;2024-01-30T14:49:25;8.32;;;3.50;;
51718;SDS011;37795;53.236;5.704;2024-01-30T14:51:51;5.57;;;3.25;;
51718;SDS011;37795;53.236;5.704;2024-01-30T14:54:16;9.35;;;3.33;;
51718;SDS011;37795;53.236;5.704;2024-01-30T14:56:43;5.85;;;3.10;;
51718;SDS011;37795;53.236;5.704;2024-01-30T14:59:09;5.78;;;2.85;;
51718;SDS011;37795;53.236;5.704;2024-01-30T15:01:35;10.00;;;3.38;;
51718;SDS011;37795;53.236;5.704;2024-01-30T15:04:01;7.50;;;3.13;;
51718;SDS011;37795;53.236;5.704;2024-01-30T15:06:27;6.32;;;2.70;;